createdAt,value
2018-03-29T00:00:39.753Z,0.00
2018-03-29T00:01:39.749Z,0.00
2018-03-29T00:02:39.747Z,0.00
2018-03-29T00:03:39.742Z,0.00
2018-03-29T00:04:39.739Z,0.00
2018-03-29T00:05:39.734Z,0.00
2018-03-29T00:06:39.732Z,0.00
2018-03-29T00:07:39.728Z,0.00
2018-03-29T00:08:39.723Z,0.00
2018-03-29T00:09:39.719Z,0.00
2018-03-29T00:10:39.720Z,0.00
2018-03-29T00:11:39.713Z,0.00
2018-03-29T00:12:39.712Z,0.00
2018-03-29T00:13:39.706Z,0.00
2018-03-29T00:14:39.702Z,0.00
2018-03-29T00:15:39.709Z,0.00
2018-03-29T00:16:39.695Z,0.00
2018-03-29T00:17:39.697Z,0.00
2018-03-29T00:18:39.687Z,0.00
2018-03-29T00:19:39.683Z,0.00
2018-03-29T00:20:39.683Z,0.00
2018-03-29T00:21:39.677Z,0.00
2018-03-29T00:22:39.673Z,0.00
2018-03-29T00:23:39.669Z,0.00
2018-03-29T00:24:39.664Z,0.00
2018-03-29T00:25:39.661Z,0.00
2018-03-29T00:26:39.658Z,0.00
2018-03-29T00:27:39.656Z,0.00
2018-03-29T00:28:39.649Z,0.00
2018-03-29T00:29:39.646Z,0.00
2018-03-29T00:30:39.642Z,0.00
2018-03-29T00:31:39.638Z,0.00
2018-03-29T00:32:39.635Z,0.00
2018-03-29T00:33:39.631Z,0.00
2018-03-29T00:34:39.627Z,0.00
2018-03-29T00:35:39.624Z,0.00
2018-03-29T00:36:39.619Z,0.00
2018-03-29T00:37:39.616Z,0.00
2018-03-29T00:38:39.612Z,0.00
2018-03-29T00:39:39.607Z,0.00
2018-03-29T00:40:39.604Z,0.00
2018-03-29T00:41:39.601Z,0.00
2018-03-29T00:42:39.599Z,0.00
2018-03-29T00:43:39.592Z,0.00
2018-03-29T00:44:39.589Z,0.00
2018-03-29T00:45:39.585Z,0.00
2018-03-29T00:46:39.581Z,0.00
2018-03-29T00:47:39.578Z,0.00
2018-03-29T00:48:39.573Z,0.00
2018-03-29T00:49:39.569Z,0.00
2018-03-29T00:50:39.566Z,0.00
2018-03-29T00:51:39.562Z,0.00
2018-03-29T00:52:39.558Z,0.00
2018-03-29T00:53:39.555Z,0.00
2018-03-29T00:54:39.549Z,0.00
2018-03-29T00:55:39.545Z,0.00
2018-03-29T00:56:39.542Z,0.00
2018-03-29T00:57:39.538Z,0.00
2018-03-29T00:58:39.533Z,0.00
2018-03-29T00:59:39.530Z,0.00
2018-03-29T01:00:39.525Z,0.00
2018-03-29T01:01:39.522Z,0.00
2018-03-29T01:02:39.518Z,0.00
2018-03-29T01:03:39.516Z,0.00
2018-03-29T01:04:39.511Z,0.00
2018-03-29T01:05:39.506Z,0.00
2018-03-29T01:06:39.503Z,0.00
2018-03-29T01:07:39.498Z,0.00
2018-03-29T01:08:39.498Z,0.00
2018-03-29T01:09:39.492Z,0.00
2018-03-29T01:10:39.486Z,0.00
2018-03-29T01:11:39.482Z,0.00
2018-03-29T01:12:39.478Z,0.00
2018-03-29T01:13:39.476Z,0.00
2018-03-29T01:14:39.470Z,0.00
2018-03-29T01:15:39.465Z,0.00
2018-03-29T01:16:39.461Z,0.00
2018-03-29T01:17:39.465Z,0.00
2018-03-29T01:18:39.454Z,0.00
2018-03-29T01:19:39.450Z,0.00
2018-03-29T01:20:39.446Z,0.00
2018-03-29T01:21:39.442Z,0.00
2018-03-29T01:22:39.438Z,0.00
2018-03-29T01:23:39.435Z,0.00
2018-03-29T01:24:39.430Z,0.00
2018-03-29T01:25:39.425Z,0.00
2018-03-29T01:26:39.422Z,0.00
2018-03-29T01:27:39.418Z,0.00
2018-03-29T01:28:39.417Z,0.00
2018-03-29T01:29:39.410Z,0.00
2018-03-29T01:30:39.655Z,0.00
2018-03-29T01:31:39.411Z,0.00
2018-03-29T01:32:39.396Z,0.00
2018-03-29T01:33:39.393Z,0.00
2018-03-29T01:34:39.388Z,0.00
2018-03-29T01:35:39.385Z,0.00
2018-03-29T01:36:39.385Z,0.00
2018-03-29T01:37:39.376Z,0.00
2018-03-29T01:38:39.372Z,0.00
2018-03-29T01:39:39.368Z,0.00
2018-03-29T01:40:39.367Z,0.00
2018-03-29T01:41:39.360Z,0.00
2018-03-29T01:42:39.355Z,0.00
2018-03-29T01:43:39.353Z,0.00
2018-03-29T01:44:39.348Z,0.00
2018-03-29T01:45:39.341Z,0.00
2018-03-29T01:46:39.338Z,0.00
2018-03-29T01:47:39.335Z,0.00
2018-03-29T01:48:39.329Z,0.00
2018-03-29T01:49:39.326Z,0.00
2018-03-29T01:50:39.320Z,0.00
2018-03-29T01:51:39.317Z,0.00
2018-03-29T01:52:39.312Z,0.00
2018-03-29T01:53:39.314Z,0.00
2018-03-29T01:54:39.304Z,0.00
2018-03-29T01:55:39.300Z,0.00
2018-03-29T01:56:39.295Z,0.00
2018-03-29T01:57:39.289Z,0.00
2018-03-29T01:58:39.289Z,0.00
2018-03-29T01:59:39.281Z,0.00
2018-03-29T02:00:39.275Z,0.00
2018-03-29T02:01:39.271Z,0.00
2018-03-29T02:02:39.268Z,0.00
2018-03-29T02:03:39.263Z,0.00
2018-03-29T02:04:39.258Z,0.00
2018-03-29T02:05:39.253Z,0.00
2018-03-29T02:06:39.248Z,0.00
2018-03-29T02:07:39.243Z,0.00
2018-03-29T02:08:39.237Z,0.00
2018-03-29T02:09:39.233Z,0.00
2018-03-29T02:10:39.229Z,0.00
2018-03-29T02:11:39.225Z,0.00
2018-03-29T02:12:39.219Z,0.00
2018-03-29T02:13:39.215Z,0.00
2018-03-29T02:14:39.223Z,0.00
2018-03-29T02:15:39.206Z,0.00
2018-03-29T02:16:39.201Z,0.00
2018-03-29T02:17:39.196Z,0.00
2018-03-29T02:18:39.192Z,0.00
2018-03-29T02:19:39.186Z,0.00
2018-03-29T02:20:39.182Z,0.00
2018-03-29T02:21:39.177Z,0.00
2018-03-29T02:22:39.173Z,0.00
2018-03-29T02:23:39.167Z,0.00
2018-03-29T02:24:39.162Z,0.00
2018-03-29T02:25:39.158Z,0.00
2018-03-29T02:26:39.154Z,0.00
2018-03-29T02:27:39.149Z,0.00
2018-03-29T02:28:39.144Z,0.00
2018-03-29T02:29:39.139Z,0.00
2018-03-29T02:30:39.138Z,0.00
2018-03-29T02:31:39.131Z,0.00
2018-03-29T02:32:39.124Z,0.00
2018-03-29T02:33:39.125Z,0.00
2018-03-29T02:34:39.121Z,0.00
2018-03-29T02:35:39.130Z,0.00
2018-03-29T02:36:39.108Z,0.00
2018-03-29T02:37:39.103Z,0.00
2018-03-29T02:38:39.105Z,0.00
2018-03-29T02:39:39.097Z,0.00
2018-03-29T02:40:39.089Z,0.00
2018-03-29T02:41:39.083Z,0.00
2018-03-29T02:42:39.079Z,0.00
2018-03-29T02:43:39.075Z,0.00
2018-03-29T02:44:39.070Z,0.00
2018-03-29T02:45:39.065Z,0.00
2018-03-29T02:46:39.061Z,0.00
2018-03-29T02:47:39.057Z,0.00
2018-03-29T02:48:39.052Z,0.00
2018-03-29T02:49:39.046Z,0.00
2018-03-29T02:50:39.042Z,0.00
2018-03-29T02:51:39.037Z,0.00
2018-03-29T02:52:39.032Z,0.00
2018-03-29T02:53:39.027Z,0.00
2018-03-29T02:54:39.021Z,0.00
2018-03-29T02:55:39.017Z,0.00
2018-03-29T02:56:39.015Z,0.00
2018-03-29T02:57:39.008Z,0.00
2018-03-29T02:58:39.004Z,0.00
2018-03-29T02:59:38.998Z,0.00
2018-03-29T03:00:38.993Z,0.00
2018-03-29T03:01:38.991Z,0.00
2018-03-29T03:02:38.985Z,0.00
2018-03-29T03:03:38.983Z,0.00
2018-03-29T03:04:38.975Z,0.00
2018-03-29T03:05:38.970Z,0.00
2018-03-29T03:06:38.964Z,0.00
2018-03-29T03:07:38.960Z,0.00
2018-03-29T03:08:38.959Z,0.00
2018-03-29T03:09:38.951Z,0.00
2018-03-29T03:10:38.953Z,0.00
2018-03-29T03:11:38.942Z,0.00
2018-03-29T03:12:38.937Z,0.00
2018-03-29T03:13:38.933Z,0.00
2018-03-29T03:14:38.940Z,0.00
2018-03-29T03:15:38.921Z,0.00
2018-03-29T03:16:38.917Z,0.00
2018-03-29T03:17:38.912Z,0.00
2018-03-29T03:18:38.907Z,0.00
2018-03-29T03:19:38.903Z,0.00
2018-03-29T03:20:38.897Z,0.00
2018-03-29T03:21:38.892Z,0.00
2018-03-29T03:22:38.888Z,0.00
2018-03-29T03:23:38.884Z,0.00
2018-03-29T03:24:38.878Z,0.00
2018-03-29T03:25:38.873Z,0.00
2018-03-29T03:26:38.868Z,0.00
2018-03-29T03:27:38.863Z,0.00
2018-03-29T03:28:39.162Z,0.00
2018-03-29T03:29:38.852Z,0.00
2018-03-29T03:30:38.848Z,0.00
2018-03-29T03:31:38.842Z,0.00
2018-03-29T03:32:38.836Z,0.00
2018-03-29T03:33:38.831Z,0.00
2018-03-29T03:34:38.825Z,0.00
2018-03-29T03:35:38.823Z,0.00
2018-03-29T03:36:38.815Z,0.00
2018-03-29T03:37:38.814Z,0.00
2018-03-29T03:38:38.806Z,0.00
2018-03-29T03:39:38.804Z,0.00
2018-03-29T03:40:38.795Z,0.00
2018-03-29T03:41:38.792Z,0.00
2018-03-29T03:42:38.786Z,0.00
2018-03-29T03:43:38.780Z,0.00
2018-03-29T03:44:38.775Z,0.00
2018-03-29T03:45:38.770Z,0.00
2018-03-29T03:46:38.768Z,0.00
2018-03-29T03:47:38.758Z,0.00
2018-03-29T03:48:38.753Z,0.00
2018-03-29T03:49:38.750Z,0.00
2018-03-29T03:50:38.743Z,0.00
2018-03-29T03:51:38.739Z,0.00
2018-03-29T03:52:38.733Z,0.00
2018-03-29T03:53:38.728Z,0.00
2018-03-29T03:54:38.723Z,0.00
2018-03-29T03:55:38.718Z,0.00
2018-03-29T03:56:38.712Z,0.00
2018-03-29T03:57:38.708Z,0.00
2018-03-29T03:58:38.703Z,0.00
2018-03-29T03:59:38.698Z,0.00
2018-03-29T04:00:38.692Z,0.00
2018-03-29T04:01:38.686Z,0.00
2018-03-29T04:02:38.682Z,0.00
2018-03-29T04:03:38.681Z,0.00
2018-03-29T04:04:38.671Z,0.00
2018-03-29T04:05:38.665Z,0.00
2018-03-29T04:06:38.660Z,0.00
2018-03-29T04:07:38.657Z,0.00
2018-03-29T04:08:38.650Z,0.00
2018-03-29T04:09:38.645Z,0.00
2018-03-29T04:10:38.641Z,0.00
2018-03-29T04:11:38.636Z,0.00
2018-03-29T04:12:38.630Z,0.00
2018-03-29T04:13:38.626Z,0.00
2018-03-29T04:14:38.621Z,0.00
2018-03-29T04:15:38.617Z,0.00
2018-03-29T04:16:38.610Z,0.00
2018-03-29T04:17:38.606Z,0.00
2018-03-29T04:18:38.601Z,0.00
2018-03-29T04:19:38.596Z,0.00
2018-03-29T04:20:38.590Z,0.00
2018-03-29T04:21:38.584Z,0.00
2018-03-29T04:22:38.580Z,0.00
2018-03-29T04:23:38.576Z,0.00
2018-03-29T04:24:38.568Z,0.00
2018-03-29T04:25:38.564Z,0.00
2018-03-29T04:26:38.559Z,0.00
2018-03-29T04:27:38.555Z,0.00
2018-03-29T04:28:38.548Z,0.00
2018-03-29T04:29:38.550Z,0.00
2018-03-29T04:30:38.539Z,0.00
2018-03-29T04:31:38.535Z,0.00
2018-03-29T04:32:38.528Z,0.00
2018-03-29T04:33:38.523Z,0.00
2018-03-29T04:34:38.518Z,0.00
2018-03-29T04:35:38.512Z,0.00
2018-03-29T04:36:38.507Z,0.00
2018-03-29T04:37:38.502Z,0.00
2018-03-29T04:38:38.496Z,0.00
2018-03-29T04:39:38.491Z,0.00
2018-03-29T04:40:38.486Z,4.00
2018-03-29T04:41:38.481Z,4.00
2018-03-29T04:42:38.476Z,0.00
2018-03-29T04:43:38.471Z,4.00
2018-03-29T04:44:38.465Z,4.00
2018-03-29T04:45:38.459Z,8.00
2018-03-29T04:46:38.455Z,4.00
2018-03-29T04:47:38.450Z,4.00
2018-03-29T04:48:38.444Z,8.00
2018-03-29T04:49:38.439Z,4.00
2018-03-29T04:50:38.434Z,8.00
2018-03-29T04:51:38.427Z,12.00
2018-03-29T04:52:38.424Z,8.00
2018-03-29T04:53:38.416Z,12.00
2018-03-29T04:54:38.411Z,12.00
2018-03-29T04:55:38.408Z,12.00
2018-03-29T04:56:38.400Z,12.00
2018-03-29T04:57:38.395Z,16.00
2018-03-29T04:58:38.389Z,20.00
2018-03-29T04:59:38.384Z,20.00
2018-03-29T05:00:38.379Z,24.00
2018-03-29T05:01:38.374Z,28.00
2018-03-29T05:02:38.369Z,32.00
2018-03-29T05:03:38.364Z,36.00
2018-03-29T05:04:38.357Z,40.00
2018-03-29T05:05:38.356Z,48.00
2018-03-29T05:06:38.346Z,48.00
2018-03-29T05:07:38.391Z,52.00
2018-03-29T05:08:38.336Z,60.00
2018-03-29T05:09:38.331Z,64.00
2018-03-29T05:10:38.575Z,68.00
2018-03-29T05:11:38.319Z,80.00
2018-03-29T05:12:38.314Z,92.00
2018-03-29T05:13:38.311Z,100.00
2018-03-29T05:14:38.304Z,104.00
2018-03-29T05:15:38.298Z,108.00
2018-03-29T05:16:38.293Z,116.00
2018-03-29T05:17:38.287Z,128.00
2018-03-29T05:18:38.284Z,140.00
2018-03-29T05:19:38.277Z,156.00
2018-03-29T05:20:38.269Z,172.00
2018-03-29T05:21:38.268Z,180.00
2018-03-29T05:22:38.260Z,192.00
2018-03-29T05:23:38.254Z,212.00
2018-03-29T05:24:38.249Z,232.00
2018-03-29T05:25:38.243Z,248.00
2018-03-29T05:26:38.238Z,256.00
2018-03-29T05:27:38.232Z,260.00
2018-03-29T05:28:38.225Z,272.00
2018-03-29T05:29:38.221Z,280.00
2018-03-29T05:30:38.217Z,292.00
2018-03-29T05:31:38.214Z,296.00
2018-03-29T05:32:38.204Z,308.00
2018-03-29T05:33:38.200Z,328.00
2018-03-29T05:34:38.194Z,348.00
2018-03-29T05:35:38.190Z,368.00
2018-03-29T05:36:38.184Z,392.00
2018-03-29T05:37:38.178Z,432.00
2018-03-29T05:38:38.212Z,464.00
2018-03-29T05:39:38.167Z,492.00
2018-03-29T05:40:38.162Z,548.00
2018-03-29T05:41:38.157Z,600.00
2018-03-29T05:42:38.152Z,624.00
2018-03-29T05:43:38.171Z,668.00
2018-03-29T05:44:38.140Z,712.00
2018-03-29T05:45:38.136Z,768.00
2018-03-29T05:46:38.129Z,836.00
2018-03-29T05:47:38.131Z,916.00
2018-03-29T05:48:38.120Z,992.00
2018-03-29T05:49:38.114Z,1076.00
2018-03-29T05:50:38.117Z,1156.00
2018-03-29T05:51:38.104Z,1244.00
2018-03-29T05:52:38.099Z,1320.00
2018-03-29T05:53:38.094Z,1376.00
2018-03-29T05:54:38.356Z,1428.00
2018-03-29T05:55:38.083Z,1460.00
2018-03-29T05:56:38.078Z,1476.00
2018-03-29T05:57:38.080Z,1512.00
2018-03-29T05:58:38.067Z,1508.00
2018-03-29T05:59:38.065Z,1404.00
2018-03-29T06:00:38.056Z,1328.00
2018-03-29T06:01:38.058Z,1324.00
2018-03-29T06:02:38.049Z,1360.00
2018-03-29T06:03:38.043Z,1428.00
2018-03-29T06:04:38.037Z,1528.00
2018-03-29T06:05:38.366Z,1616.00
2018-03-29T06:06:38.028Z,1608.00
2018-03-29T06:07:38.023Z,1520.00
2018-03-29T06:08:38.022Z,1472.00
2018-03-29T06:09:38.014Z,1456.00
2018-03-29T06:10:38.008Z,1416.00
2018-03-29T06:11:38.004Z,1400.00
2018-03-29T06:12:37.998Z,1424.00
2018-03-29T06:13:37.999Z,1436.00
2018-03-29T06:14:37.990Z,1512.00
2018-03-29T06:15:37.986Z,1616.00
2018-03-29T06:16:37.980Z,1736.00
2018-03-29T06:17:37.976Z,1908.00
2018-03-29T06:18:38.006Z,2088.00
2018-03-29T06:19:38.268Z,2240.00
2018-03-29T06:20:37.963Z,2436.00
2018-03-29T06:21:37.957Z,2660.00
2018-03-29T06:22:37.955Z,2860.00
2018-03-29T06:23:37.950Z,3176.00
2018-03-29T06:24:37.944Z,3388.00
2018-03-29T06:25:37.948Z,3548.00
2018-03-29T06:26:37.940Z,3440.00
2018-03-29T06:27:37.933Z,3872.00
2018-03-29T06:28:37.929Z,3328.00
2018-03-29T06:29:37.925Z,2776.00
2018-03-29T06:30:37.921Z,2396.00
2018-03-29T06:31:37.916Z,2188.00
2018-03-29T06:32:37.912Z,2080.00
2018-03-29T06:33:37.915Z,2084.00
2018-03-29T06:34:37.906Z,2096.00
2018-03-29T06:35:37.901Z,2184.00
2018-03-29T06:36:37.897Z,2320.00
2018-03-29T06:37:37.893Z,2448.00
2018-03-29T06:38:37.896Z,2720.00
2018-03-29T06:39:37.885Z,3112.00
2018-03-29T06:40:37.884Z,3308.00
2018-03-29T06:41:37.877Z,3304.00
2018-03-29T06:42:37.904Z,3268.00
2018-03-29T06:43:37.870Z,3428.00
2018-03-29T06:44:37.902Z,3744.00
2018-03-29T06:45:37.860Z,4072.00
2018-03-29T06:46:37.859Z,4392.00
2018-03-29T06:47:37.853Z,4728.00
2018-03-29T06:48:37.850Z,4804.00
2018-03-29T06:49:37.846Z,4528.00
2018-03-29T06:50:37.844Z,4144.00
2018-03-29T06:51:37.840Z,3700.00
2018-03-29T06:52:37.836Z,3340.00
2018-03-29T06:53:37.832Z,2880.00
2018-03-29T06:54:37.829Z,2516.00
2018-03-29T06:55:37.826Z,2192.00
2018-03-29T06:56:37.825Z,1892.00
2018-03-29T06:57:37.823Z,1768.00
2018-03-29T06:58:37.815Z,1748.00
2018-03-29T06:59:38.094Z,1844.00
2018-03-29T07:00:37.808Z,2096.00
2018-03-29T07:01:37.803Z,2368.00
2018-03-29T07:02:37.800Z,2588.00
2018-03-29T07:03:38.068Z,2704.00
2018-03-29T07:04:37.856Z,2764.00
2018-03-29T07:05:37.851Z,2676.00
2018-03-29T07:06:37.882Z,2688.00
2018-03-29T07:07:37.878Z,2884.00
2018-03-29T07:08:37.791Z,3032.00
2018-03-29T07:09:37.963Z,3064.00
2018-03-29T07:10:37.862Z,3036.00
2018-03-29T07:11:37.817Z,3036.00
2018-03-29T07:12:37.829Z,3068.00
2018-03-29T07:13:37.762Z,3068.00
2018-03-29T07:14:37.761Z,3052.00
2018-03-29T07:15:37.756Z,3072.00
2018-03-29T07:16:37.751Z,3172.00
2018-03-29T07:17:37.747Z,3188.00
2018-03-29T07:18:37.744Z,3104.00
2018-03-29T07:19:37.745Z,3052.00
2018-03-29T07:20:37.743Z,3008.00
2018-03-29T07:21:37.733Z,3016.00
2018-03-29T07:22:37.730Z,3044.00
2018-03-29T07:23:37.727Z,3076.00
2018-03-29T07:24:37.722Z,3040.00
2018-03-29T07:25:37.718Z,2968.00
2018-03-29T07:26:37.714Z,2932.00
2018-03-29T07:27:37.711Z,2904.00
2018-03-29T07:28:37.708Z,2868.00
2018-03-29T07:29:37.705Z,2864.00
2018-03-29T07:30:37.724Z,2924.00
2018-03-29T07:31:37.701Z,2936.00
2018-03-29T07:32:37.693Z,2960.00
2018-03-29T07:33:37.691Z,3048.00
2018-03-29T07:34:37.712Z,3272.00
2018-03-29T07:35:37.771Z,3448.00
2018-03-29T07:36:37.686Z,3548.00
2018-03-29T07:37:37.675Z,3744.00
2018-03-29T07:38:37.673Z,3868.00
2018-03-29T07:39:37.671Z,4080.00
2018-03-29T07:40:37.666Z,4388.00
2018-03-29T07:41:37.664Z,4596.00
2018-03-29T07:42:37.660Z,4612.00
2018-03-29T07:43:37.946Z,4340.00
2018-03-29T07:44:37.653Z,4136.00
2018-03-29T07:45:37.648Z,4108.00
2018-03-29T07:46:37.646Z,4144.00
2018-03-29T07:47:37.645Z,4052.00
2018-03-29T07:48:37.899Z,3924.00
2018-03-29T07:49:38.406Z,3816.00
2018-03-29T07:50:37.881Z,3708.00
2018-03-29T07:51:37.629Z,3688.00
2018-03-29T07:52:37.859Z,3692.00
2018-03-29T07:53:37.621Z,3652.00
2018-03-29T07:54:37.617Z,3640.00
2018-03-29T07:55:37.615Z,3664.00
2018-03-29T07:56:37.612Z,3616.00
2018-03-29T07:57:37.609Z,3524.00
2018-03-29T07:58:37.606Z,3472.00
2018-03-29T07:59:37.602Z,3396.00
2018-03-29T08:00:37.598Z,3448.00
2018-03-29T08:01:37.749Z,3560.00
2018-03-29T08:02:37.593Z,3716.00
2018-03-29T08:03:37.589Z,3868.00
2018-03-29T08:04:37.584Z,4020.00
2018-03-29T08:05:37.582Z,4004.00
2018-03-29T08:06:37.580Z,3928.00
2018-03-29T08:07:37.576Z,3876.00
2018-03-29T08:08:37.571Z,4024.00
2018-03-29T08:09:37.568Z,4332.00
2018-03-29T08:10:37.567Z,4624.00
2018-03-29T08:11:37.563Z,4944.00
2018-03-29T08:12:37.559Z,5092.00
2018-03-29T08:13:37.555Z,5160.00
2018-03-29T08:14:37.552Z,5028.00
2018-03-29T08:15:37.550Z,4820.00
2018-03-29T08:16:37.547Z,4624.00
2018-03-29T08:17:37.544Z,4600.00
2018-03-29T08:18:37.542Z,4792.00
2018-03-29T08:19:37.538Z,4988.00
2018-03-29T08:20:37.536Z,4956.00
2018-03-29T08:21:37.533Z,4756.00
2018-03-29T08:22:37.528Z,4612.00
2018-03-29T08:23:37.526Z,4640.00
2018-03-29T08:24:37.523Z,4820.00
2018-03-29T08:25:37.520Z,5000.00
2018-03-29T08:26:37.517Z,5020.00
2018-03-29T08:27:37.514Z,5004.00
2018-03-29T08:28:37.782Z,5032.00
2018-03-29T08:29:37.511Z,5264.00
2018-03-29T08:30:37.509Z,5588.00
2018-03-29T08:31:37.503Z,5844.00
2018-03-29T08:32:37.500Z,5888.00
2018-03-29T08:33:37.495Z,5780.00
2018-03-29T08:34:37.897Z,5492.00
2018-03-29T08:35:37.491Z,4904.00
2018-03-29T08:36:37.490Z,4528.00
2018-03-29T08:37:37.671Z,4292.00
2018-03-29T08:38:37.485Z,4204.00
2018-03-29T08:39:37.790Z,4300.00
2018-03-29T08:40:37.575Z,4248.00
2018-03-29T08:41:37.475Z,4096.00
2018-03-29T08:42:37.756Z,4000.00
2018-03-29T08:43:37.469Z,3944.00
2018-03-29T08:44:37.486Z,3928.00
2018-03-29T08:45:37.464Z,3896.00
2018-03-29T08:46:37.747Z,3840.00
2018-03-29T08:47:37.464Z,3780.00
2018-03-29T08:48:37.458Z,3856.00
2018-03-29T08:49:37.521Z,3932.00
2018-03-29T08:50:37.451Z,4016.00
2018-03-29T08:51:37.641Z,4100.00
2018-03-29T08:52:37.566Z,4044.00
2018-03-29T08:53:37.442Z,4148.00
2018-03-29T08:54:37.440Z,3988.00
2018-03-29T08:55:37.757Z,3780.00
2018-03-29T08:56:37.436Z,3828.00
2018-03-29T08:57:37.433Z,3936.00
2018-03-29T08:58:38.450Z,4028.00
2018-03-29T08:59:37.726Z,4132.00
2018-03-29T09:00:37.429Z,4132.00
2018-03-29T09:01:37.422Z,4108.00
2018-03-29T09:02:37.419Z,4148.00
2018-03-29T09:03:37.417Z,3972.00
2018-03-29T09:04:37.601Z,3908.00
2018-03-29T09:05:37.411Z,4088.00
2018-03-29T09:06:37.410Z,4068.00
2018-03-29T09:07:37.407Z,4124.00
2018-03-29T09:08:37.549Z,4080.00
2018-03-29T09:09:37.436Z,4068.00
2018-03-29T09:10:37.398Z,4224.00
2018-03-29T09:11:37.394Z,4260.00
2018-03-29T09:12:37.476Z,4300.00
2018-03-29T09:13:37.389Z,4388.00
2018-03-29T09:14:37.387Z,4464.00
2018-03-29T09:15:37.385Z,4532.00
2018-03-29T09:16:37.381Z,4516.00
2018-03-29T09:17:37.379Z,4372.00
2018-03-29T09:18:37.377Z,4348.00
2018-03-29T09:19:37.374Z,4376.00
2018-03-29T09:20:37.371Z,4364.00
2018-03-29T09:21:37.368Z,4392.00
2018-03-29T09:22:37.365Z,4416.00
2018-03-29T09:23:37.363Z,4364.00
2018-03-29T09:24:37.359Z,4400.00
2018-03-29T09:25:37.357Z,4480.00
2018-03-29T09:26:37.354Z,4624.00
2018-03-29T09:27:37.351Z,4792.00
2018-03-29T09:28:37.348Z,4964.00
2018-03-29T09:29:37.350Z,5120.00
2018-03-29T09:30:37.347Z,5208.00
2018-03-29T09:31:37.341Z,5220.00
2018-03-29T09:32:37.339Z,5248.00
2018-03-29T09:33:37.336Z,5228.00
2018-03-29T09:34:37.572Z,5176.00
2018-03-29T09:35:37.362Z,5196.00
2018-03-29T09:36:37.326Z,5256.00
2018-03-29T09:37:37.323Z,5312.00
2018-03-29T09:38:37.322Z,5300.00
2018-03-29T09:39:37.319Z,5200.00
2018-03-29T09:40:37.316Z,5136.00
2018-03-29T09:41:37.972Z,5092.00
2018-03-29T09:42:37.382Z,5100.00
2018-03-29T09:43:37.307Z,5024.00
2018-03-29T09:44:37.306Z,4892.00
2018-03-29T09:45:37.303Z,4760.00
2018-03-29T09:46:37.301Z,4656.00
2018-03-29T09:47:37.301Z,4576.00
2018-03-29T09:48:37.294Z,4536.00
2018-03-29T09:49:37.362Z,4444.00
2018-03-29T09:50:37.291Z,4356.00
2018-03-29T09:51:37.287Z,4304.00
2018-03-29T09:52:37.672Z,4216.00
2018-03-29T09:53:37.282Z,4236.00
2018-03-29T09:54:37.281Z,4308.00
2018-03-29T09:55:37.278Z,4432.00
2018-03-29T09:56:37.275Z,4600.00
2018-03-29T09:57:37.273Z,4696.00
2018-03-29T09:58:37.273Z,4656.00
2018-03-29T09:59:37.269Z,4696.00
2018-03-29T10:00:37.266Z,4632.00
2018-03-29T10:01:37.263Z,4472.00
2018-03-29T10:02:37.261Z,4492.00
2018-03-29T10:03:37.259Z,4448.00
2018-03-29T10:04:37.311Z,4524.00
2018-03-29T10:05:37.253Z,4756.00
2018-03-29T10:06:37.253Z,4752.00
2018-03-29T10:07:37.249Z,4500.00
2018-03-29T10:08:37.366Z,4348.00
2018-03-29T10:09:37.309Z,4292.00
2018-03-29T10:10:37.275Z,4428.00
2018-03-29T10:11:37.241Z,4644.00
2018-03-29T10:12:37.236Z,4752.00
2018-03-29T10:13:37.233Z,4776.00
2018-03-29T10:14:37.232Z,4796.00
2018-03-29T10:15:37.231Z,4744.00
2018-03-29T10:16:37.227Z,4716.00
2018-03-29T10:17:37.224Z,4716.00
2018-03-29T10:18:37.221Z,4696.00
2018-03-29T10:19:37.220Z,4688.00
2018-03-29T10:20:37.219Z,4768.00
2018-03-29T10:21:37.214Z,4876.00
2018-03-29T10:22:37.214Z,5000.00
2018-03-29T10:23:37.212Z,5196.00
2018-03-29T10:24:37.245Z,5372.00
2018-03-29T10:25:37.205Z,5576.00
2018-03-29T10:26:37.202Z,5836.00
2018-03-29T10:27:37.205Z,6192.00
2018-03-29T10:28:37.562Z,6644.00
2018-03-29T10:29:37.196Z,6956.00
2018-03-29T10:30:37.196Z,7120.00
2018-03-29T10:31:37.225Z,7156.00
2018-03-29T10:32:37.190Z,7024.00
2018-03-29T10:33:37.188Z,6828.00
2018-03-29T10:34:37.186Z,6636.00
2018-03-29T10:35:37.184Z,6532.00
2018-03-29T10:36:37.181Z,6492.00
2018-03-29T10:37:37.184Z,6568.00
2018-03-29T10:38:37.179Z,6684.00
2018-03-29T10:39:37.176Z,6744.00
2018-03-29T10:40:37.174Z,6652.00
2018-03-29T10:41:37.173Z,6488.00
2018-03-29T10:42:37.171Z,6348.00
2018-03-29T10:43:37.169Z,6176.00
2018-03-29T10:44:37.510Z,6048.00
2018-03-29T10:45:37.175Z,5964.00
2018-03-29T10:46:37.168Z,5796.00
2018-03-29T10:47:37.163Z,5652.00
2018-03-29T10:48:37.166Z,5768.00
2018-03-29T10:49:37.159Z,6008.00
2018-03-29T10:50:37.158Z,6456.00
2018-03-29T10:51:37.155Z,6880.00
2018-03-29T10:52:37.155Z,6976.00
2018-03-29T10:53:37.153Z,7124.00
2018-03-29T10:54:37.152Z,7700.00
2018-03-29T10:55:37.150Z,8304.00
2018-03-29T10:56:37.675Z,8740.00
2018-03-29T10:57:37.404Z,8624.00
2018-03-29T10:58:37.146Z,8920.00
2018-03-29T10:59:37.146Z,9396.00
2018-03-29T11:00:37.143Z,10148.00
2018-03-29T11:01:37.143Z,10784.00
2018-03-29T11:02:37.141Z,12580.00
2018-03-29T11:03:37.141Z,13340.00
2018-03-29T11:04:37.139Z,13188.00
2018-03-29T11:05:37.137Z,13140.00
2018-03-29T11:06:37.137Z,12716.00
2018-03-29T11:07:37.138Z,12152.00
2018-03-29T11:08:37.136Z,13072.00
2018-03-29T11:09:37.136Z,10872.00
2018-03-29T11:10:37.136Z,10816.00
2018-03-29T11:11:37.476Z,8480.00
2018-03-29T11:12:37.135Z,8724.00
2018-03-29T11:13:37.134Z,8620.00
2018-03-29T11:14:37.377Z,9004.00
2018-03-29T11:15:37.135Z,9408.00
2018-03-29T11:16:37.133Z,9640.00
2018-03-29T11:17:37.135Z,9120.00
2018-03-29T11:18:37.135Z,8488.00
2018-03-29T11:19:37.135Z,9084.00
2018-03-29T11:20:37.135Z,11408.00
2018-03-29T11:21:37.134Z,10372.00
2018-03-29T11:22:37.136Z,12528.00
2018-03-29T11:23:37.136Z,17696.00
2018-03-29T11:24:37.136Z,19008.00
2018-03-29T11:25:37.136Z,23296.00
2018-03-29T11:26:37.137Z,13512.00
2018-03-29T11:27:37.139Z,16800.00
2018-03-29T11:28:37.138Z,27168.00
2018-03-29T11:29:37.139Z,29184.00
2018-03-29T11:30:37.142Z,28896.00
2018-03-29T11:31:37.143Z,32704.00
2018-03-29T11:32:37.145Z,30432.00
2018-03-29T11:33:37.148Z,33472.00
2018-03-29T11:34:37.148Z,31744.00
2018-03-29T11:35:37.152Z,34464.00
2018-03-29T11:36:37.158Z,27200.00
2018-03-29T11:37:37.158Z,21568.00
2018-03-29T11:38:37.162Z,32832.00
2018-03-29T11:39:37.167Z,33344.00
2018-03-29T11:40:37.169Z,34144.00
2018-03-29T11:41:37.267Z,32128.00
2018-03-29T11:42:37.178Z,22016.00
2018-03-29T11:43:37.185Z,13704.00
2018-03-29T11:44:37.189Z,12140.00
2018-03-29T11:45:37.192Z,10748.00
2018-03-29T11:46:37.200Z,11104.00
2018-03-29T11:47:37.201Z,10488.00
2018-03-29T11:48:37.206Z,11572.00
2018-03-29T11:49:37.209Z,10908.00
2018-03-29T11:50:37.213Z,9864.00
2018-03-29T11:51:37.218Z,9368.00
2018-03-29T11:52:37.220Z,8836.00
2018-03-29T11:53:37.223Z,8128.00
2018-03-29T11:54:37.274Z,7796.00
2018-03-29T11:55:37.230Z,7668.00
2018-03-29T11:56:37.233Z,7556.00
2018-03-29T11:57:37.241Z,7404.00
2018-03-29T11:58:37.238Z,7360.00
2018-03-29T11:59:37.240Z,7396.00
2018-03-29T12:00:37.243Z,7476.00
2018-03-29T12:01:37.244Z,7632.00
2018-03-29T12:02:37.248Z,7760.00
2018-03-29T12:03:37.248Z,8028.00
2018-03-29T12:04:37.250Z,8464.00
2018-03-29T12:05:37.252Z,8732.00
2018-03-29T12:06:37.254Z,8916.00
2018-03-29T12:07:37.256Z,9312.00
2018-03-29T12:08:37.256Z,9272.00
2018-03-29T12:09:37.347Z,9176.00
2018-03-29T12:10:37.258Z,9344.00
2018-03-29T12:11:37.315Z,9384.00
2018-03-29T12:12:37.260Z,9340.00
2018-03-29T12:13:37.260Z,9016.00
2018-03-29T12:14:37.264Z,8876.00
2018-03-29T12:15:37.265Z,8904.00
2018-03-29T12:16:37.265Z,8768.00
2018-03-29T12:17:37.264Z,8332.00
2018-03-29T12:18:37.401Z,7920.00
2018-03-29T12:19:37.267Z,7572.00
2018-03-29T12:20:37.268Z,7384.00
2018-03-29T12:21:37.269Z,7544.00
2018-03-29T12:22:37.271Z,7752.00
2018-03-29T12:23:37.272Z,8172.00
2018-03-29T12:24:37.271Z,9220.00
2018-03-29T12:25:37.272Z,9640.00
2018-03-29T12:26:37.274Z,11508.00
2018-03-29T12:27:37.276Z,13932.00
2018-03-29T12:28:37.276Z,12368.00
2018-03-29T12:29:37.276Z,14900.00
2018-03-29T12:30:37.278Z,18016.00
2018-03-29T12:31:37.279Z,15160.00
2018-03-29T12:32:37.285Z,14120.00
2018-03-29T12:33:37.606Z,14528.00